Orlando, Florida
Traffic Map
Current Weather Conditions
Orlando, Florida
Clear
Clear
13°
Feels Like: 13°
Wind Chill: 13° Ceiling: Unl
Heat Index: 13° Visibility: 10mi
Dew Point: Wind: 10mph
Humidity: 62% Direction: 10° (N)
Pressure: 30.26in Gusts: 0mph
Raw Report DataKORL 211153Z 01009KT 10SM CLR 13/06 A3026 RMK AO2 SLP250 T01280056 10139 20128 53014
Traffic Incident Summary
Active as of:
Severity:
Category:
InformationThere was an issue retrieving the traffic information for this location. Please try a different location or try again shortly.
Advertisements
Track Severe Weather on mobile